createdAt,value
2023-01-10T00:00:03.923Z,9.58
2023-01-10T00:04:08.020Z,9.88
2023-01-10T00:08:10.021Z,9.49
2023-01-10T00:12:22.871Z,9.42
2023-01-10T00:16:23.575Z,9.07
2023-01-10T00:20:26.148Z,8.99
2023-01-10T00:24:26.335Z,8.94
2023-01-10T00:28:26.283Z,9.17
2023-01-10T00:32:26.285Z,9.07
2023-01-10T00:36:28.867Z,9.42
2023-01-10T00:40:28.923Z,9.22
2023-01-10T00:44:26.890Z,9.35
2023-01-10T00:48:27.272Z,9.43
2023-01-10T00:52:29.806Z,9.60
2023-01-10T00:56:30.033Z,9.69
2023-01-10T01:00:30.377Z,9.99
2023-01-10T01:04:34.103Z,9.70
2023-01-10T01:08:37.069Z,9.73
2023-01-10T01:12:37.154Z,9.93
2023-01-10T01:16:37.268Z,9.97
2023-01-10T01:20:37.529Z,9.81
2023-01-10T01:24:40.117Z,10.15
2023-01-10T01:28:40.732Z,9.96
2023-01-10T01:32:41.268Z,10.05
2023-01-10T01:36:41.430Z,10.06
2023-01-10T01:40:45.100Z,9.89
2023-01-10T01:44:45.160Z,9.76
2023-01-10T01:48:47.167Z,9.85
2023-01-10T01:52:48.141Z,10.02
2023-01-10T01:56:56.532Z,10.24
2023-01-10T02:00:58.590Z,10.07
2023-01-10T02:05:05.006Z,10.15
2023-01-10T02:09:15.529Z,10.07
2023-01-10T02:13:22.106Z,10.01
2023-01-10T02:17:22.121Z,10.36
2023-01-10T02:22:13.576Z,10.31
2023-01-10T02:26:50.007Z,10.16
2023-01-10T02:31:47.788Z,10.29
2023-01-10T02:36:22.933Z,10.37
2023-01-10T02:40:31.963Z,10.28
2023-01-10T02:44:40.386Z,10.50
2023-01-10T02:48:40.496Z,9.96
2023-01-10T02:52:43.179Z,10.35
2023-01-10T02:57:18.389Z,10.17
2023-01-10T03:01:28.876Z,10.41
2023-01-10T03:05:44.868Z,10.57
2023-01-10T03:09:59.344Z,10.06
2023-01-10T03:14:04.052Z,10.11
2023-01-10T03:18:11.123Z,9.92
2023-01-10T03:22:14.032Z,9.94
2023-01-10T03:26:20.396Z,9.98
2023-01-10T03:30:31.124Z,9.54
2023-01-10T03:34:31.550Z,10.21
2023-01-10T03:38:44.659Z,10.10
2023-01-10T03:43:09.391Z,10.06
2023-01-10T03:47:15.275Z,10.06
2023-01-10T03:51:17.085Z,10.34
2023-01-10T03:55:23.506Z,10.39
2023-01-10T03:59:30.180Z,10.11
2023-01-10T04:03:30.255Z,10.42
2023-01-10T04:07:30.473Z,10.24
2023-01-10T04:11:30.514Z,10.06
2023-01-10T04:15:33.916Z,10.59
2023-01-10T04:19:34.305Z,10.57
2023-01-10T04:23:34.434Z,10.22
2023-01-10T04:27:34.461Z,10.33
2023-01-10T04:31:37.580Z,10.07
2023-01-10T04:35:37.791Z,10.32
2023-01-10T04:39:37.956Z,10.44
2023-01-10T04:43:38.086Z,10.44
2023-01-10T04:47:40.753Z,10.41
2023-01-10T04:51:41.090Z,10.47
2023-01-10T04:55:41.103Z,10.36
2023-01-10T04:59:41.221Z,10.37
2023-01-10T05:03:44.122Z,10.29
2023-01-10T05:07:44.732Z,10.35
2023-01-10T05:11:44.868Z,10.25
2023-01-10T05:15:44.919Z,10.34
2023-01-10T05:19:47.606Z,10.26
2023-01-10T05:23:47.725Z,10.38
2023-01-10T05:27:47.798Z,10.41
2023-01-10T05:31:47.880Z,10.41
2023-01-10T05:35:50.662Z,10.64
2023-01-10T05:39:50.904Z,10.56
2023-01-10T05:43:50.929Z,10.42
2023-01-10T05:47:51.058Z,10.04
2023-01-10T05:51:53.664Z,10.20
2023-01-10T05:55:59.463Z,10.39
2023-01-10T05:59:59.635Z,10.22
2023-01-10T06:04:00.887Z,10.20
2023-01-10T06:08:03.624Z,10.07
2023-01-10T06:12:03.764Z,10.14
2023-01-10T06:16:04.075Z,9.94
2023-01-10T06:20:05.594Z,10.12
2023-01-10T06:24:09.667Z,10.12
2023-01-10T06:28:10.365Z,9.88
2023-01-10T06:32:10.396Z,9.92
2023-01-10T06:36:11.757Z,10.05
2023-01-10T06:40:15.449Z,9.94
2023-01-10T06:44:15.531Z,10.08
2023-01-10T06:48:15.590Z,10.24
2023-01-10T06:52:15.805Z,9.83
2023-01-10T06:56:18.556Z,9.93
2023-01-10T07:00:20.549Z,10.04
2023-01-10T07:04:20.552Z,9.90
2023-01-10T07:08:20.630Z,10.29
2023-01-10T07:12:23.345Z,10.32
2023-01-10T07:16:23.575Z,10.05
2023-01-10T07:20:23.767Z,9.79
2023-01-10T07:24:23.953Z,10.28
2023-01-10T07:28:26.995Z,9.82
2023-01-10T07:32:27.298Z,10.13
2023-01-10T07:36:27.469Z,10.36
2023-01-10T07:40:27.963Z,10.08
2023-01-10T07:44:30.572Z,10.36
2023-01-10T07:48:30.851Z,10.32
2023-01-10T07:52:30.886Z,10.39
2023-01-10T07:56:31.011Z,10.47
2023-01-10T08:00:33.677Z,10.52
2023-01-10T08:04:33.850Z,10.29
2023-01-10T08:08:35.969Z,10.09
2023-01-10T08:12:36.463Z,10.42
2023-01-10T08:16:39.152Z,10.07
2023-01-10T08:20:39.315Z,10.40
2023-01-10T08:24:39.508Z,10.29
2023-01-10T08:28:39.626Z,10.28
2023-01-10T08:32:42.294Z,10.24
2023-01-10T08:36:42.346Z,10.18
2023-01-10T08:40:42.389Z,10.24
2023-01-10T08:44:42.547Z,10.41
2023-01-10T08:48:45.239Z,10.63
2023-01-10T08:52:45.279Z,10.49
2023-01-10T08:56:45.280Z,10.27
2023-01-10T09:00:45.364Z,10.67
2023-01-10T09:04:48.033Z,10.39
2023-01-10T09:08:48.275Z,10.39
2023-01-10T09:12:57.437Z,10.35
2023-01-10T09:16:57.692Z,10.56
2023-01-10T09:21:00.582Z,10.77
2023-01-10T09:25:00.679Z,10.85
2023-01-10T09:29:00.715Z,10.55
2023-01-10T09:33:02.177Z,10.50
2023-01-10T09:37:04.855Z,10.53
2023-01-10T09:41:31.246Z,10.50
2023-01-10T09:45:47.342Z,10.66
2023-01-10T09:49:58.886Z,10.57
2023-01-10T09:54:12.482Z,10.75
2023-01-10T09:58:18.479Z,10.91
2023-01-10T10:02:29.441Z,10.80
2023-01-10T10:06:29.540Z,11.03
2023-01-10T10:10:43.505Z,11.14
2023-01-10T10:15:10.530Z,11.28
2023-01-10T10:19:26.020Z,11.49
2023-01-10T10:24:13.608Z,11.36
2023-01-10T10:28:46.633Z,10.88
2023-01-10T10:33:12.312Z,10.69
2023-01-10T10:37:19.724Z,10.76
2023-01-10T10:41:33.162Z,11.03
2023-01-10T10:45:44.405Z,11.04
2023-01-10T10:49:52.294Z,10.89
2023-01-10T10:53:52.374Z,11.15
2023-01-10T10:58:00.474Z,11.33
2023-01-10T11:02:04.015Z,11.26
2023-01-10T11:06:04.918Z,10.95
2023-01-10T11:10:21.914Z,10.72
2023-01-10T11:14:46.907Z,10.47
2023-01-10T11:19:10.745Z,10.33
2023-01-10T11:23:10.877Z,10.31
2023-01-10T11:27:21.775Z,10.26
2023-01-10T11:31:30.873Z,10.64
2023-01-10T11:35:38.127Z,10.61
2023-01-10T11:39:38.396Z,10.76
2023-01-10T11:43:41.829Z,10.75
2023-01-10T11:47:45.922Z,10.86
2023-01-10T11:51:54.462Z,10.74
2023-01-10T11:55:55.691Z,10.98
2023-01-10T11:59:59.166Z,11.21
2023-01-10T12:04:00.732Z,11.60
2023-01-10T12:08:10.695Z,10.96
2023-01-10T12:12:32.563Z,11.83
2023-01-10T12:16:34.698Z,11.46
2023-01-10T12:20:47.777Z,11.88
2023-01-10T12:24:55.898Z,11.91
2023-01-10T12:29:01.772Z,11.96
2023-01-10T12:33:07.280Z,11.67
2023-01-10T12:37:19.892Z,11.36
2023-01-10T12:41:45.256Z,11.22
2023-01-10T12:45:55.967Z,11.07
2023-01-10T12:50:02.097Z,11.25
2023-01-10T12:54:08.275Z,10.65
2023-01-10T12:58:23.198Z,11.05
2023-01-10T13:02:30.559Z,11.32
2023-01-10T13:06:36.435Z,11.51
2023-01-10T13:10:40.333Z,11.72
2023-01-10T13:14:54.444Z,11.39
2023-01-10T13:19:09.112Z,11.03
2023-01-10T13:23:30.556Z,10.78
2023-01-10T13:27:35.939Z,11.06
2023-01-10T13:31:38.853Z,10.61
2023-01-10T13:35:45.729Z,11.05
2023-01-10T13:39:57.539Z,11.11
2023-01-10T13:44:12.145Z,10.72
2023-01-10T13:48:31.335Z,10.79
2023-01-10T13:52:36.115Z,10.64
2023-01-10T13:56:40.899Z,10.79
2023-01-10T14:01:06.789Z,10.85
2023-01-10T14:05:19.076Z,10.75
2023-01-10T14:09:44.822Z,10.77
2023-01-10T14:13:54.042Z,10.49
2023-01-10T14:18:03.202Z,10.41
2023-01-10T14:22:07.265Z,10.42
2023-01-10T14:26:09.311Z,10.67
2023-01-10T14:30:18.961Z,10.17
2023-01-10T14:34:26.561Z,10.66
2023-01-10T14:38:33.745Z,10.73
2023-01-10T14:42:34.356Z,10.68
2023-01-10T14:46:47.152Z,10.35
2023-01-10T14:50:47.467Z,10.34
2023-01-10T14:54:51.444Z,10.09
2023-01-10T14:58:51.635Z,10.30
2023-01-10T15:02:53.440Z,10.32
2023-01-10T15:07:00.139Z,10.08
2023-01-10T15:11:08.164Z,10.23
2023-01-10T15:15:16.202Z,10.30
2023-01-10T15:19:22.727Z,10.42
2023-01-10T15:23:27.185Z,10.22
2023-01-10T15:27:31.791Z,10.30
2023-01-10T15:31:33.616Z,10.10
2023-01-10T15:35:36.897Z,10.13
2023-01-10T15:39:42.127Z,10.19
2023-01-10T15:43:45.266Z,10.24
2023-01-10T15:48:03.225Z,10.12
2023-01-10T15:52:03.769Z,10.28
2023-01-10T15:56:19.423Z,10.06
2023-01-10T16:00:23.318Z,10.40
2023-01-10T16:04:23.758Z,10.29
2023-01-10T16:08:29.169Z,10.35
2023-01-10T16:12:48.959Z,10.35
2023-01-10T16:16:51.599Z,10.17
2023-01-10T16:20:54.999Z,10.27
2023-01-10T16:24:55.247Z,9.95
2023-01-10T16:28:55.527Z,10.16
2023-01-10T16:33:00.057Z,10.12
2023-01-10T16:37:00.225Z,9.96
2023-01-10T16:41:23.059Z,10.14
2023-01-10T16:45:23.128Z,10.23
2023-01-10T16:49:26.419Z,10.25
2023-01-10T16:53:26.727Z,10.25
2023-01-10T16:57:26.957Z,10.04
2023-01-10T17:01:32.207Z,9.99
2023-01-10T17:05:38.435Z,10.30
2023-01-10T17:09:39.729Z,10.38
2023-01-10T17:13:45.530Z,10.05
2023-01-10T17:17:46.839Z,9.83
2023-01-10T17:21:49.608Z,9.94
2023-01-10T17:25:50.750Z,10.06
2023-01-10T17:29:51.724Z,10.00
2023-01-10T17:33:51.913Z,9.91
2023-01-10T17:37:56.833Z,9.62
2023-01-10T17:41:57.887Z,9.33
2023-01-10T17:46:00.181Z,9.37
2023-01-10T17:50:00.539Z,9.44
2023-01-10T17:54:03.405Z,9.27
2023-01-10T17:58:03.804Z,9.10
2023-01-10T18:02:04.071Z,9.17
2023-01-10T18:06:07.670Z,8.97
2023-01-10T18:10:12.410Z,8.87
2023-01-10T18:14:27.678Z,8.72
2023-01-10T18:18:28.110Z,9.06
2023-01-10T18:22:43.598Z,9.06
2023-01-10T18:26:46.580Z,8.90
2023-01-10T18:30:46.810Z,8.96
2023-01-10T18:34:47.242Z,8.82
2023-01-10T18:38:48.775Z,8.84
2023-01-10T18:42:55.083Z,8.67
2023-01-10T18:46:55.218Z,8.77
2023-01-10T18:50:56.572Z,8.89
2023-01-10T18:54:57.555Z,8.64
2023-01-10T18:59:01.791Z,8.69
2023-01-10T19:03:02.430Z,8.61
2023-01-10T19:07:02.525Z,8.48
2023-01-10T19:11:13.315Z,8.45
2023-01-10T19:15:17.157Z,8.68
2023-01-10T19:19:17.300Z,8.59
2023-01-10T19:23:17.446Z,8.75
2023-01-10T19:27:18.424Z,8.71
2023-01-10T19:31:24.228Z,8.64
2023-01-10T19:35:24.391Z,8.52
2023-01-10T19:39:24.676Z,8.24
2023-01-10T19:43:26.012Z,8.26
2023-01-10T19:47:29.038Z,8.21
2023-01-10T19:51:29.116Z,8.02
2023-01-10T19:55:29.805Z,8.45
2023-01-10T19:59:31.727Z,8.15
2023-01-10T20:03:34.763Z,8.08
2023-01-10T20:07:34.879Z,8.31
2023-01-10T20:11:41.917Z,8.30
2023-01-10T20:15:42.004Z,8.35
2023-01-10T20:19:44.690Z,8.22
2023-01-10T20:23:45.801Z,8.26
2023-01-10T20:27:46.919Z,8.10
2023-01-10T20:31:52.702Z,8.18
2023-01-10T20:36:04.627Z,8.12
2023-01-10T20:40:05.292Z,8.02
2023-01-10T20:44:05.713Z,7.88
2023-01-10T20:48:05.786Z,7.88
2023-01-10T20:52:08.457Z,7.59
2023-01-10T20:56:12.399Z,7.59
2023-01-10T21:00:15.766Z,7.87
2023-01-10T21:04:15.941Z,7.83
2023-01-10T21:08:18.637Z,7.58
2023-01-10T21:12:23.237Z,7.90
2023-01-10T21:16:25.619Z,7.85
2023-01-10T21:20:28.597Z,8.00
2023-01-10T21:24:31.544Z,8.07
2023-01-10T21:28:32.429Z,7.93
2023-01-10T21:32:32.642Z,7.99
2023-01-10T21:36:32.719Z,8.06
2023-01-10T21:40:37.056Z,8.16
2023-01-10T21:44:37.305Z,8.13
2023-01-10T21:48:37.405Z,8.05
2023-01-10T21:52:37.831Z,8.23
2023-01-10T21:56:40.534Z,8.17
2023-01-10T22:00:40.774Z,8.19
2023-01-10T22:04:41.039Z,8.20
2023-01-10T22:08:41.084Z,7.95
2023-01-10T22:12:43.730Z,7.88
2023-01-10T22:16:43.846Z,7.78
2023-01-10T22:20:47.629Z,7.78
2023-01-10T22:24:48.760Z,7.92
2023-01-10T22:28:51.539Z,7.51
2023-01-10T22:32:51.698Z,7.46
2023-01-10T22:36:51.900Z,7.68
2023-01-10T22:40:51.951Z,7.67
2023-01-10T22:44:54.582Z,7.57
2023-01-10T22:48:55.567Z,7.35
2023-01-10T22:52:55.696Z,7.57
2023-01-10T22:56:55.775Z,7.63
2023-01-10T23:00:59.156Z,7.59
2023-01-10T23:04:59.231Z,7.80
2023-01-10T23:08:59.289Z,7.83
2023-01-10T23:13:01.101Z,7.75
2023-01-10T23:17:03.740Z,7.48
2023-01-10T23:21:05.110Z,7.63
2023-01-10T23:25:05.521Z,7.65
2023-01-10T23:29:05.587Z,7.67
2023-01-10T23:33:08.393Z,7.57
2023-01-10T23:37:08.774Z,7.69
2023-01-10T23:41:09.706Z,7.67
2023-01-10T23:45:12.262Z,7.43
2023-01-10T23:49:15.093Z,7.20
2023-01-10T23:53:15.224Z,7.45
2023-01-10T23:57:15.308Z,7.52
